Grand Cayman, Cayman Islands

7:59 PM EST on August 20, 2014 (GMT -0500)
Cayman Retreat | Change Station
CLOSE
Current Station
Personal Weather Station
Location: George Town,
Elevation: 6 ft
Nearby Weather Stations

Elev 6 ft 19.27 °N, 81.39 °W | Updated 1 second ago

Partly Cloudy
Partly Cloudy
81.9 °F
Feels Like 84 °F
N
1.2
Wind Variable Wind from SSE
Gusts 1.2 mph

Today
High -- | Low -- °F
--% Chance of Precip.
Yesterday
High -- | Low -- °F
Precip. -- in
6:07 AM 6:49 PM
Waning Crescent, 18% visible
Pressure 30.01 in
Visibility 6.2 miles
Clouds Few 1800 ft
Heat Index 84 °F
Dew Point 67 °F
Humidity 61%
Rainfall 0.00 in
Snow Depth Not available.
UV 0 out of 12
Pollen Not available.
Air Quality Not available.
Flu Activity Not available.
METAR MWCR 210100Z 10006KT 9999 FEW018 29/22 Q1016 NOSIG

More Conditions Fewer Conditions

Pressure 30.01 in
Visibility 6.2 miles
Clouds Few 1800 ft
Heat Index 84 °F
Dew Point 67 °F
Humidity 61%
Rainfall 0.00 in
Snow Depth Not available.
UV 0 out of 12
Pollen Not available.
Air Quality Not available.
Flu Activity Not available.
METAR MWCR 210100Z 10006KT 9999 FEW018 29/22 Q1016 NOSIG

More Conditions Fewer Conditions

10-Day Weather Forecast

Almanac

Astronomy

Aug. 20, 2014 Rise Set
Actual Time 6:07 AM EST 6:49 PM EST
Civil Twilight 5:45 AM EST 7:12 PM EST
Nautical Twilight 5:18 AM EST 7:38 PM EST
Astronomical Twilight 4:51 AM EST 8:05 PM EST
Moon 2:01 AM EST (8/20) 3:20 PM EST (8/20)
Length of Visible Light 13h 27m
Length of Day
12h 42m
Tomorrow will be 1m 0s shorter.
Waning Crescent, 18% of the Moon is Illuminated
Today
Waning Crescent
Aug 25
New
Sep 2
First Quarter
Sep 8
Full
Sep 15
Last Quarter

Today's Extremes

Country Highs Country Lows

Community

WunderPhotos

Upload Photos

1,745,823 photos uploaded!

WunderBlogs® & News

Nearby

Snow Depth

Not available.

Earthquake Activity

City Distance Mag. Time & Date
No recent earthquake activity has been reported nearby.
Minimum magnitude displayed is 2.5.

Coastal Water Temperatures

Place Temperature
No Stations Reporting

Nearby Weather Stations